This is the latest recevied weather packets stored in our database for station/object GW1468. If no packets are shown the sender has not sent any weather packets the latest 10 day(s).
| Time | Temp. | Humidity | Pressure | Rain* | Wind** | Luminosity | Snow |
|---|---|---|---|---|---|---|---|
| 1777884141 | 5° C | 90% | - | 0 mm | - | - | - |
| 1777882695 | 5° C | 90% | - | 0 mm | - | - | - |
| 1777882336 | 5° C | 90% | - | 0 mm | - | - | - |
| 1777880176 | 4.44° C | 90% | - | 0 mm | - | - | - |
| 1777873000 | 3.89° C | 91% | - | 0 mm | - | - | - |
| 1777868671 | 3.89° C | 90% | - | 0 mm | - | - | - |
| 1777867604 | 4.44° C | 89% | - | 0 mm | - | - | - |
| 1777865772 | 4.44° C | 87% | - | 0 mm | - | - | - |
| 1777865436 | 5° C | 87% | - | 0 mm | - | - | - |
| 1777863254 | 5.56° C | 84% | - | 0 mm | - | - | - |
| 1777862540 | 6.11° C | 81% | - | 0 mm | - | - | - |
| 1777861827 | 6.67° C | 80% | - | 0 mm | - | - | - |
| 1777861114 | 6.11° C | 80% | - | 0 mm | - | - | - |
| 1777860380 | 6.67° C | 77% | - | 0 mm | - | - | - |
| 1777857134 | 8.33° C | 72% | - | 0 mm | - | - | - |
| 1777856078 | 8.89° C | 68% | - | 0 mm | - | - | - |
| 1777849972 | 15.56° C | 43% | - | 0 mm | - | - | - |
| 1777848143 | 17.78° C | 34% | - | 0 mm | - | - | - |
| 1777836981 | 16.67° C | 38% | - | 0 mm | - | - | - |
| 1777836643 | 16.67° C | 33% | - | 0 mm | - | - | - |
| 1777832334 | 14.44° C | 30% | - | 0 mm | - | - | - |
| 1777830500 | 13.89° C | 36% | - | 0 mm | - | - | - |
| 1777824410 | 12.78° C | 37% | - | 0 mm | - | - | - |
| 1777823677 | 11.67° C | 39% | - | 0 mm | - | - | - |
| 1777821138 | 11.11° C | 42% | - | 0 mm | - | - | - |
* Rain since midnight (hover to see other rain measurements)
** Current wind speed in m/s (hover to see current wind gust speed)